Stephens, Missouri
Current Conditions -  °F | °C
As of 7:44 AM on Saturday 25 Oct 2014 (Local Time) from KCOU Reporting Station
Haze Haze  
Wind Chill: 58°   Ceiling: Unl
Heat Index: 58°   Visibility: 0.75mi
Dew Point: 58°   Wind: 5mph
Humidity: 100%   Direction: 270°W
Pressure: 30.04"   Gusts: NA
Location:  39.0235°N, 92.2896°W
Report Text: KCOU 251244Z 27004KT 3/4SM BR CLR 14/14 A3004 RMK AO2 T01440144 $
Loading
Personal Weather Stations






























Interactive Weather Map New forecast layout! Learn more

10-Day Weather Forecast

Advertisements
Track Severe Weather on mobile